Saint Paul Island, Canada
Current Conditions -  °F | °C
As of 12:00 AM on Sunday 21 Dec 2014 (Local Time) from CWZB Reporting Station
Overcast Overcast  
Wind Chill: 19°   Ceiling: 1900
Heat Index: 27°   Visibility: 9mi
Dew Point: 19°   Wind: 7mph
Humidity: 73%   Direction: 70°ENE
Pressure: 30.34"   Gusts: NA
Location:  47.21°N, 60.14°W
Report Text: CWZB 210400Z AUTO 07006KT 9SM OVC019 M03/M07 A3034 RMK SLP273 T10291072 WSI/SWOB
Loading
Personal Weather Stations






























Interactive Weather Map New forecast layout! Learn more

10-Day Weather Forecast

Advertisements
Track Severe Weather on mobile